Time;durP1;ratioP1;P1;durP2;ratioP2;P2;SDS_P1;SDS_P2;PMS_P1;PMS_P2;Temp;Humidity;BMP_temperature;BMP_pressure;BME280_temperature;BME280_humidity;BME280_pressure;Samples;Min_cycle;Max_cycle;Signal;HPM_P1;HPM_P2
2021/12/27 00:02:07;;;;;;;13.35;8.57;;;;;;;6.16;65.75;100159.84;5072354;28;20041;-64
2021/12/27 00:04:35;;;;;;;11.98;8.13;;;;;;;6.16;65.77;100162.50;5070650;28;20048;-64
2021/12/27 00:07:03;;;;;;;14.85;9.23;;;;;;;6.19;65.85;100157.56;5071175;28;20045;-65
2021/12/27 00:09:31;;;;;;;13.25;8.18;;;;;;;6.19;65.83;100162.06;5068527;28;20053;-64
2021/12/27 00:12:00;;;;;;;12.02;8.07;;;;;;;6.20;65.80;100163.72;5083618;28;20067;-64
2021/12/27 00:14:28;;;;;;;10.88;8.20;;;;;;;6.19;65.75;100162.06;5075665;28;20045;-64
2021/12/27 00:16:56;;;;;;;13.07;8.38;;;;;;;6.17;65.93;100153.47;5075086;28;20072;-64
2021/12/27 00:19:24;;;;;;;11.68;8.35;;;;;;;6.19;65.82;100160.22;5070219;28;20048;-64
2021/12/27 00:21:52;;;;;;;10.45;7.43;;;;;;;6.19;65.56;100162.06;5073294;28;20037;-64
2021/12/27 00:24:20;;;;;;;11.52;7.95;;;;;;;6.19;65.66;100157.56;5075030;28;20072;-64
2021/12/27 00:26:48;;;;;;;12.50;8.05;;;;;;;6.19;65.66;100156.75;5064962;28;20057;-64
2021/12/27 00:29:17;;;;;;;12.68;7.85;;;;;;;6.17;66.12;100142.78;5075115;28;20084;-64
2021/12/27 00:31:44;;;;;;;11.68;7.60;;;;;;;6.18;65.94;100155.09;5063127;28;20049;-64
2021/12/27 00:34:13;;;;;;;11.10;7.50;;;;;;;6.16;66.25;100138.50;5083709;28;20068;-64
2021/12/27 00:36:41;;;;;;;11.57;8.50;;;;;;;6.15;65.96;100137.66;5072078;28;20111;-64
2021/12/27 00:39:09;;;;;;;11.95;8.10;;;;;;;6.17;66.38;100135.63;5072652;28;20048;-64
2021/12/27 00:41:37;;;;;;;11.52;8.07;;;;;;;6.17;65.95;100129.47;5075560;28;20049;-64
2021/12/27 00:44:05;;;;;;;11.63;7.97;;;;;;;6.15;66.07;100124.34;5072168;28;20040;-64
2021/12/27 00:46:34;;;;;;;10.63;7.85;;;;;;;6.18;66.22;100131.09;5069360;28;20049;-64
2021/12/27 00:49:02;;;;;;;10.13;7.32;;;;;;;6.18;66.31;100123.91;5065631;28;20431;-64
2021/12/27 00:51:29;;;;;;;12.07;8.23;;;;;;;6.17;65.91;100124.94;5065644;28;20495;-64
2021/12/27 00:53:57;;;;;;;12.25;8.38;;;;;;;6.18;66.13;100113.25;5077643;28;20040;-64
2021/12/27 00:56:25;;;;;;;11.20;7.70;;;;;;;6.19;66.33;100106.88;5069101;28;20135;-64
2021/12/27 00:58:53;;;;;;;10.50;7.88;;;;;;;6.19;66.16;100114.88;5077253;28;20183;-64
2021/12/27 01:01:20;;;;;;;12.35;8.13;;;;;;;6.19;66.24;100103.38;5063612;28;20084;-64
2021/12/27 01:03:49;;;;;;;11.20;8.27;;;;;;;6.19;66.42;100108.72;5062787;28;20075;-64
2021/12/27 01:06:17;;;;;;;14.27;8.75;;;;;;;6.19;66.03;100101.53;5069696;28;20072;-64
2021/12/27 01:08:45;;;;;;;10.25;6.85;;;;;;;6.20;66.08;100105.84;5076352;28;20076;-64
2021/12/27 01:11:24;;;;;;;9.95;7.10;;;;;;;6.21;65.94;100106.66;5062673;28;20080;-64
2021/12/27 01:14:03;;;;;;;10.32;7.18;;;;;;;6.19;65.70;100104.22;5076618;28;20070;-64
2021/12/27 01:16:31;;;;;;;10.50;7.35;;;;;;;6.19;66.00;100106.88;5064209;28;20537;-64
2021/12/27 01:19:00;;;;;;;9.05;6.47;;;;;;;6.20;66.05;100111.19;5072502;28;20165;-64
2021/12/27 01:21:28;;;;;;;18.00;7.95;;;;;;;6.18;66.36;100109.75;5063614;28;20076;-64
2021/12/27 01:23:56;;;;;;;11.10;7.43;;;;;;;6.20;66.33;100102.34;5065232;28;20072;-64
2021/12/27 01:26:25;;;;;;;12.10;8.23;;;;;;;6.20;66.19;100105.03;5073816;28;20056;-64
2021/12/27 01:28:54;;;;;;;12.10;8.45;;;;;;;6.21;65.98;100104.00;5064746;28;20044;-64
2021/12/27 01:31:22;;;;;;;13.95;7.63;;;;;;;6.17;66.20;100100.94;5066508;28;20079;-64
2021/12/27 01:33:50;;;;;;;14.70;9.20;;;;;;;6.20;66.48;100097.84;5070717;28;20080;-64
2021/12/27 01:36:19;;;;;;;12.55;7.93;;;;;;;6.20;66.28;100100.50;5066228;28;20082;-64
2021/12/27 01:38:48;;;;;;;11.95;7.78;;;;;;;6.21;66.49;100093.31;5068000;28;20072;-64
2021/12/27 01:41:18;;;;;;;12.60;8.88;;;;;;;6.19;66.49;100092.72;5071494;28;20059;-64
2021/12/27 01:43:46;;;;;;;11.73;7.80;;;;;;;6.21;66.46;100090.66;5068678;28;20076;-64
2021/12/27 01:46:16;;;;;;;11.38;7.75;;;;;;;6.19;66.96;100088.19;5065947;28;20040;-64
2021/12/27 01:48:53;;;;;;;13.40;8.13;;;;;;;6.19;66.49;100087.38;5077736;28;20106;-64
2021/12/27 01:51:23;;;;;;;;;;;;;;;6.20;66.51;100086.34;5065997;28;20048;-64
2021/12/27 01:53:52;;;;;;;10.73;7.28;;;;;;;6.20;66.61;100081.00;5074587;28;19920;-64
2021/12/27 01:56:22;;;;;;;11.35;8.20;;;;;;;6.22;66.99;100084.28;5060812;28;20080;-64
2021/12/27 01:58:50;;;;;;;11.88;8.32;;;;;;;6.23;66.55;100085.09;5063273;28;20075;-64
2021/12/27 02:01:18;;;;;;;10.32;7.63;;;;;;;6.22;66.56;100092.28;5077596;28;20052;-64
2021/12/27 02:03:46;;;;;;;10.73;8.05;;;;;;;6.23;66.67;100079.78;5080020;28;20390;-64
2021/12/27 02:06:15;;;;;;;9.85;7.50;;;;;;;6.22;66.47;100076.28;5067800;28;20041;-64
2021/12/27 02:08:45;;;;;;;11.50;7.72;;;;;;;6.18;66.69;100075.06;5070831;28;20080;-64
2021/12/27 02:11:15;;;;;;;10.80;7.57;;;;;;;6.20;66.74;100079.16;5069717;28;20037;-64
2021/12/27 02:13:45;;;;;;;12.02;7.95;;;;;;;6.23;66.95;100079.78;5082807;28;20083;-64
2021/12/27 02:16:15;;;;;;;13.65;8.13;;;;;;;6.24;66.42;100076.88;5078758;28;20080;-64
2021/12/27 02:18:44;;;;;;;12.38;7.50;;;;;;;6.24;66.49;100078.75;5067693;28;20136;-64
2021/12/27 02:21:13;;;;;;;11.27;8.10;;;;;;;6.23;66.24;100083.25;5070878;28;20041;-64
2021/12/27 02:23:42;;;;;;;12.20;7.78;;;;;;;6.24;66.72;100082.22;5067594;28;20037;-64
2021/12/27 02:26:10;;;;;;;11.15;7.72;;;;;;;6.24;66.87;100074.22;5071058;28;20104;-64
2021/12/27 02:28:38;;;;;;;12.27;8.10;;;;;;;6.23;66.70;100074.44;5075789;28;20098;-64
2021/12/27 02:31:07;;;;;;;12.20;8.55;;;;;;;6.24;66.97;100073.41;5069098;28;20072;-64
2021/12/27 02:33:37;;;;;;;10.90;7.32;;;;;;;6.24;67.00;100071.56;5075871;28;20047;-64
2021/12/27 02:36:06;;;;;;;11.27;7.85;;;;;;;6.24;66.67;100071.56;5065779;28;20045;-64
2021/12/27 02:38:39;;;;;;;12.48;8.20;;;;;;;6.23;66.79;100075.25;5067669;28;20084;-64
2021/12/27 02:41:08;;;;;;;11.90;7.90;;;;;;;6.24;66.77;100073.41;5067596;28;20131;-64
2021/12/27 02:43:39;;;;;;;12.88;8.10;;;;;;;6.26;66.70;100074.81;5062508;28;20072;-64
2021/12/27 02:46:08;;;;;;;10.50;7.78;;;;;;;6.26;66.76;100074.81;5063325;28;20052;-64
2021/12/27 02:48:40;;;;;;;12.77;9.45;;;;;;;6.29;66.85;100077.06;5063414;28;20171;-64
2021/12/27 02:51:09;;;;;;;11.35;7.90;;;;;;;6.27;66.84;100070.31;5072822;28;20072;-64
2021/12/27 02:53:38;;;;;;;12.68;8.40;;;;;;;6.25;67.07;100059.03;5071352;28;20056;-64
2021/12/27 02:56:06;;;;;;;11.75;9.02;;;;;;;6.27;66.99;100059.63;5083661;28;20049;-64
2021/12/27 02:58:35;;;;;;;12.10;8.65;;;;;;;6.26;67.65;100055.34;5074287;28;20049;-64
2021/12/27 03:01:07;;;;;;;14.40;8.73;;;;;;;6.27;67.16;100052.44;5069784;28;20075;-64
2021/12/27 03:03:35;;;;;;;12.95;8.85;;;;;;;6.29;67.35;100061.06;5069153;28;20048;-64
2021/12/27 03:06:04;;;;;;;12.77;8.07;;;;;;;6.28;66.88;100054.09;5068048;28;20510;-64
2021/12/27 03:08:32;;;;;;;10.25;7.55;;;;;;;6.29;67.25;100052.25;5070533;28;20084;-64
2021/12/27 03:11:03;;;;;;;12.35;7.75;;;;;;;6.27;67.25;100047.13;5064191;28;20053;-64
2021/12/27 03:13:33;;;;;;;12.82;8.45;;;;;;;6.28;67.43;100054.09;5063670;28;20080;-64
2021/12/27 03:16:05;;;;;;;12.00;7.90;;;;;;;6.29;67.42;100054.91;5079573;28;20364;-64
2021/12/27 03:18:34;;;;;;;11.73;8.35;;;;;;;6.30;67.18;100053.88;5076681;28;20132;-64
2021/12/27 03:21:06;;;;;;;11.27;8.00;;;;;;;6.29;67.38;100050.38;5058123;28;20081;-64
2021/12/27 03:23:34;;;;;;;12.35;7.55;;;;;;;6.30;67.38;100040.53;5071684;28;20246;-64
2021/12/27 03:26:03;;;;;;;11.20;7.85;;;;;;;6.30;67.54;100048.53;5078060;28;20045;-64
2021/12/27 03:28:32;;;;;;;11.50;7.90;;;;;;;6.30;67.47;100043.19;5062584;28;20076;-64
2021/12/27 03:31:00;;;;;;;12.05;8.60;;;;;;;6.29;67.55;100047.72;5075021;28;20073;-64
2021/12/27 03:33:29;;;;;;;11.73;7.60;;;;;;;6.30;67.85;100045.88;5066336;28;20085;-64
2021/12/27 03:36:02;;;;;;;12.50;8.27;;;;;;;6.30;67.71;100043.19;5075958;28;20041;-64
2021/12/27 03:38:32;;;;;;;13.57;8.50;;;;;;;6.29;67.66;100042.38;5073466;28;20052;-64
2021/12/27 03:41:00;;;;;;;11.82;7.68;;;;;;;6.30;67.80;100038.69;5076439;28;20072;-64
2021/12/27 03:43:29;;;;;;;11.43;8.02;;;;;;;6.31;67.95;100045.66;5065311;28;20071;-64
2021/12/27 03:45:57;;;;;;;12.95;8.68;;;;;;;6.32;68.01;100039.28;5067518;28;20454;-64
2021/12/27 03:48:25;;;;;;;12.00;7.75;;;;;;;6.22;67.75;100028.25;5074716;28;20116;-64
2021/12/27 03:50:53;;;;;;;11.40;8.02;;;;;;;6.31;67.99;100034.97;5075050;28;20737;-64
2021/12/27 03:53:22;;;;;;;12.27;8.60;;;;;;;6.32;67.88;100033.13;5072132;28;20078;-64
2021/12/27 03:55:50;;;;;;;11.55;8.15;;;;;;;6.32;68.09;100025.13;5078838;28;20079;-64
2021/12/27 03:58:27;;;;;;;12.38;8.27;;;;;;;6.32;68.18;100019.78;5068764;28;20087;-64
2021/12/27 04:01:14;;;;;;;13.98;9.32;;;;;;;6.33;68.13;100016.91;5066567;28;20087;-64
2021/12/27 04:03:44;;;;;;;15.48;8.25;;;;;;;6.34;68.38;100018.53;5068319;28;20056;-64
2021/12/27 04:06:12;;;;;;;12.75;8.52;;;;;;;6.34;68.23;100012.38;5073649;28;20040;-64
2021/12/27 04:08:40;;;;;;;11.85;7.70;;;;;;;6.33;67.98;100013.41;5066363;28;20049;-64
2021/12/27 04:11:08;;;;;;;11.70;8.05;;;;;;;6.33;67.96;100010.75;5074881;28;20055;-64
2021/12/27 04:13:37;;;;;;;11.48;7.72;;;;;;;6.34;68.09;100007.06;5070273;28;20080;-64
2021/12/27 04:16:07;;;;;;;13.43;8.18;;;;;;;6.32;68.33;100007.25;5065638;28;20045;-64
2021/12/27 04:18:35;;;;;;;11.82;7.80;;;;;;;6.33;68.25;100006.22;5069708;28;20139;-64
2021/12/27 04:21:03;;;;;;;12.25;8.02;;;;;;;6.34;68.00;100007.06;5071352;28;20041;-64
2021/12/27 04:23:30;;;;;;;11.30;7.90;;;;;;;6.34;68.19;99994.53;5074139;28;20056;-64
2021/12/27 04:25:58;;;;;;;12.43;8.10;;;;;;;6.28;68.31;99983.91;5068482;28;20426;-64
2021/12/27 04:28:26;;;;;;;12.27;8.18;;;;;;;6.35;67.62;99993.50;5065981;28;20060;-64
2021/12/27 04:30:54;;;;;;;10.90;7.40;;;;;;;6.33;68.27;99981.41;5071664;28;20475;-64
2021/12/27 04:33:23;;;;;;;10.93;7.65;;;;;;;6.36;68.03;99987.13;5078982;28;20111;-64
2021/12/27 04:35:50;;;;;;;11.57;8.15;;;;;;;6.36;68.36;99984.44;5070548;28;20060;-64
2021/12/27 04:38:18;;;;;;;11.85;7.80;;;;;;;6.35;68.16;99982.81;5078691;28;20848;-65
2021/12/27 04:40:48;;;;;;;11.90;8.38;;;;;;;6.35;68.13;99984.66;5059784;28;20086;-64
2021/12/27 04:43:19;;;;;;;11.05;7.55;;;;;;;6.35;68.00;99977.47;5074363;28;20076;-64
2021/12/27 04:45:48;;;;;;;10.45;7.30;;;;;;;6.34;68.11;99981.19;5069162;28;20108;-64
2021/12/27 04:48:17;;;;;;;12.68;8.77;;;;;;;6.35;68.36;99972.16;5068941;28;20428;-64
2021/12/27 04:50:46;;;;;;;13.48;8.68;;;;;;;6.38;68.38;99978.91;5060799;28;20079;-64
2021/12/27 04:53:14;;;;;;;9.75;6.90;;;;;;;6.36;68.54;99976.44;5066943;28;20059;-64
2021/12/27 04:55:44;;;;;;;10.57;7.38;;;;;;;6.37;68.36;99978.09;5070399;28;20064;-64
2021/12/27 04:58:13;;;;;;;9.50;6.90;;;;;;;6.37;68.22;99972.75;5068317;28;20049;-64
2021/12/27 05:00:41;;;;;;;11.82;7.88;;;;;;;6.38;68.43;99977.06;5071913;28;20053;-64
2021/12/27 05:03:08;;;;;;;11.85;7.75;;;;;;;6.36;68.55;99972.97;5073057;28;20076;-64
2021/12/27 05:05:41;;;;;;;12.10;8.38;;;;;;;6.34;68.20;99964.34;5073551;28;20044;-64
2021/12/27 05:08:10;;;;;;;11.43;7.55;;;;;;;6.38;68.08;99970.91;5068932;28;20076;-64
2021/12/27 05:10:38;;;;;;;10.02;7.38;;;;;;;6.38;67.92;99973.56;5074072;28;20079;-64
2021/12/27 05:13:06;;;;;;;10.75;7.28;;;;;;;6.38;68.22;99977.06;5069855;28;20049;-64
2021/12/27 05:15:33;;;;;;;13.43;8.10;;;;;;;6.39;68.35;99985.88;5067227;28;20072;-64
2021/12/27 05:18:04;;;;;;;10.25;6.82;;;;;;;6.38;68.09;99992.25;5068084;28;20084;-64
2021/12/27 05:20:31;;;;;;;9.75;7.13;;;;;;;6.37;68.01;99983.41;5076044;28;20048;-64
2021/12/27 05:22:59;;;;;;;10.98;7.85;;;;;;;6.38;68.18;99981.56;5073974;28;20080;-64
2021/12/27 05:25:28;;;;;;;13.55;7.57;;;;;;;6.30;68.08;99963.97;5065342;28;20345;-64
2021/12/27 05:27:56;;;;;;;10.60;7.03;;;;;;;6.37;68.13;99972.75;5076993;28;20036;-64
2021/12/27 05:30:24;;;;;;;9.80;6.55;;;;;;;6.38;68.33;99965.56;5076315;28;20395;-64
2021/12/27 05:32:52;;;;;;;11.18;7.35;;;;;;;6.39;68.50;99967.19;5077070;28;20079;-63
2021/12/27 05:35:19;;;;;;;9.98;7.28;;;;;;;6.38;68.04;99950.38;5067352;28;20108;-63
2021/12/27 05:37:47;;;;;;;11.45;7.55;;;;;;;6.40;68.31;99952.81;5078267;28;20063;-64
2021/12/27 05:40:17;;;;;;;8.95;6.40;;;;;;;6.41;68.47;99954.44;5072144;28;20041;-64
2021/12/27 05:42:49;;;;;;;10.63;7.25;;;;;;;6.41;68.32;99955.28;5067990;28;20084;-64
2021/12/27 05:45:18;;;;;;;10.95;7.13;;;;;;;6.37;68.63;99947.91;5062241;28;20214;-64
2021/12/27 05:47:47;;;;;;;8.77;6.28;;;;;;;6.44;68.14;99948.69;5061129;28;20058;-64
2021/12/27 05:50:16;;;;;;;10.82;7.07;;;;;;;6.40;67.97;99950.97;5075075;28;20498;-64
2021/12/27 05:52:43;;;;;;;9.98;6.90;;;;;;;6.43;68.31;99953.19;5065675;28;20060;-64
2021/12/27 05:55:12;;;;;;;10.27;7.47;;;;;;;6.43;68.36;99961.22;5064549;28;20067;-64
2021/12/27 05:57:40;;;;;;;10.80;7.30;;;;;;;6.44;68.30;99959.34;5071456;28;20514;-64
2021/12/27 06:00:12;;;;;;;11.52;7.32;;;;;;;6.43;68.07;99958.53;5066769;28;20048;-64
2021/12/27 06:02:40;;;;;;;11.00;6.93;;;;;;;6.41;68.25;99955.28;5067976;28;20084;-64
2021/12/27 06:05:09;;;;;;;10.93;7.00;;;;;;;6.42;68.42;99951.56;5063639;28;20139;-64
2021/12/27 06:07:37;;;;;;;10.38;7.07;;;;;;;6.45;68.73;99955.66;5065088;28;20068;-64
2021/12/27 06:10:06;;;;;;;10.95;7.65;;;;;;;6.45;68.74;99950.31;5063936;28;20103;-64
2021/12/27 06:12:34;;;;;;;10.00;6.95;;;;;;;6.46;68.80;99950.09;5069500;28;20056;-64
2021/12/27 06:15:03;;;;;;;12.15;6.57;;;;;;;6.44;68.52;99944.16;5062229;28;20087;-64
2021/12/27 06:17:33;;;;;;;10.15;7.07;;;;;;;6.45;69.39;99955.66;5067773;28;20049;-63
2021/12/27 06:20:13;;;;;;;9.76;7.00;;;;;;;6.45;69.18;99950.31;4710911;28;10003427;-64
2021/12/27 06:22:44;;;;;;;10.63;6.93;;;;;;;6.47;68.92;99953.59;5056841;28;20821;-64
2021/12/27 06:25:12;;;;;;;12.65;7.15;;;;;;;6.46;68.93;99959.97;5071038;28;20374;-64
2021/12/27 06:27:40;;;;;;;9.35;6.55;;;;;;;6.46;69.09;99951.94;5057715;28;20146;-64
2021/12/27 06:30:09;;;;;;;12.30;6.78;;;;;;;6.46;69.07;99949.28;5072877;28;20075;-64
2021/12/27 06:32:39;;;;;;;10.45;6.82;;;;;;;6.43;68.86;99945.19;5066330;28;20137;-64
2021/12/27 06:35:10;;;;;;;9.32;6.80;;;;;;;6.47;68.85;99949.06;5071148;28;20075;-65
2021/12/27 06:37:38;;;;;;;15.98;8.65;;;;;;;6.47;68.37;99946.41;5061538;28;20041;-67
2021/12/27 06:40:07;;;;;;;9.63;6.78;;;;;;;6.50;68.66;99942.47;5066238;28;20078;-66
2021/12/27 06:42:35;;;;;;;9.40;6.80;;;;;;;6.49;68.47;99943.50;5064582;28;20052;-66
2021/12/27 06:45:04;;;;;;;9.90;6.55;;;;;;;6.48;68.42;99941.88;5062808;28;20049;-65
2021/12/27 06:47:32;;;;;;;9.98;6.80;;;;;;;6.49;68.76;99939.00;5065269;28;20037;-64
2021/12/27 06:50:02;;;;;;;9.80;6.53;;;;;;;6.51;69.24;99928.09;5057491;28;20172;-65
2021/12/27 06:52:29;;;;;;;10.00;6.75;;;;;;;6.58;68.78;99930.72;5063991;28;20077;-66
2021/12/27 06:54:57;;;;;;;9.07;6.25;;;;;;;6.68;68.09;99915.00;5072094;28;20199;-67
2021/12/27 06:57:30;;;;;;;9.75;6.45;;;;;;;6.85;67.90;99924.91;5063716;28;20053;-65
2021/12/27 06:59:58;;;;;;;10.07;6.95;;;;;;;7.03;67.38;99912.59;5075895;28;20472;-66
2021/12/27 07:02:26;;;;;;;8.82;6.30;;;;;;;7.13;66.58;99911.03;5064429;28;20045;-64
2021/12/27 07:04:54;;;;;;;8.90;5.97;;;;;;;7.29;66.35;99914.97;5077684;28;20045;-64
2021/12/27 07:07:25;;;;;;;8.43;6.10;;;;;;;7.45;65.43;99913.56;5064195;28;20077;-64
2021/12/27 07:09:53;;;;;;;9.30;6.57;;;;;;;7.54;65.46;99904.19;5063972;28;20506;-64
2021/12/27 07:12:21;;;;;;;7.88;6.05;;;;;;;7.64;64.91;99906.34;5069941;28;20105;-64
2021/12/27 07:14:49;;;;;;;9.30;5.68;;;;;;;7.78;64.59;99902.44;5061355;28;20112;-64
2021/12/27 07:17:18;;;;;;;9.70;5.85;;;;;;;7.84;64.03;99902.34;5059478;28;20076;-65
2021/12/27 07:19:46;;;;;;;9.52;6.10;;;;;;;8.00;63.19;99905.41;5061391;28;20258;-64
2021/12/27 07:22:14;;;;;;;7.28;5.43;;;;;;;8.02;63.08;99901.47;5063394;28;20080;-65
2021/12/27 07:24:43;;;;;;;10.63;5.80;;;;;;;8.01;63.95;99904.38;5058445;28;20092;-63
2021/12/27 07:27:11;;;;;;;9.32;5.93;;;;;;;7.91;64.60;99899.56;5069622;28;20077;-66
2021/12/27 07:29:39;;;;;;;8.35;5.28;;;;;;;7.78;65.23;99897.91;5054153;28;20839;-64
2021/12/27 07:32:08;;;;;;;8.93;6.32;;;;;;;7.62;65.37;99903.88;5050087;28;20623;-66
2021/12/27 07:34:39;;;;;;;9.88;5.65;;;;;;;7.51;66.21;99899.28;5060091;28;20056;-64
2021/12/27 07:37:07;;;;;;;7.75;5.43;;;;;;;7.35;66.52;99882.00;5068185;28;20068;-65
2021/12/27 07:39:35;;;;;;;8.90;5.63;;;;;;;7.34;66.43;99892.94;5062616;28;20064;-65
2021/12/27 07:42:05;;;;;;;8.48;5.38;;;;;;;7.32;66.74;99889.66;5064927;28;20103;-64
2021/12/27 07:44:33;;;;;;;9.48;5.70;;;;;;;7.16;66.74;99875.03;5064354;28;20041;-65
2021/12/27 07:47:01;;;;;;;8.93;5.95;;;;;;;7.24;66.67;99900.66;5066268;28;20199;-65
2021/12/27 07:49:29;;;;;;;7.55;5.53;;;;;;;7.19;67.03;99907.47;5065403;28;20068;-65
2021/12/27 07:51:56;;;;;;;9.27;6.03;;;;;;;7.15;67.02;99908.97;5060114;28;20079;-64
2021/12/27 07:54:25;;;;;;;10.00;5.65;;;;;;;7.11;67.42;99899.75;5066920;28;20056;-64
2021/12/27 07:56:53;;;;;;;12.00;5.60;;;;;;;7.08;67.95;99904.72;5065258;28;20064;-65
2021/12/27 07:59:22;;;;;;;9.65;5.65;;;;;;;7.06;67.58;99902.28;5062049;28;20116;-64
2021/12/27 08:01:50;;;;;;;11.27;5.82;;;;;;;7.03;67.76;99901.91;5063014;28;20048;-64
2021/12/27 08:04:18;;;;;;;8.50;5.40;;;;;;;7.01;68.19;99906.66;4709534;28;10000644;-64
2021/12/27 08:06:45;;;;;;;7.70;5.35;;;;;;;6.99;68.37;99908.72;5057622;28;20072;-62
2021/12/27 08:09:13;;;;;;;7.93;5.40;;;;;;;6.96;68.16;99910.00;5071185;28;20080;-62
2021/12/27 08:11:42;;;;;;;7.68;5.40;;;;;;;6.94;68.47;99916.59;5064445;28;20130;-63
2021/12/27 08:14:09;;;;;;;8.73;5.75;;;;;;;6.90;68.48;99912.75;5062604;28;20073;-62
2021/12/27 08:16:39;;;;;;;11.85;5.60;;;;;;;6.91;68.58;99917.88;5063689;28;20060;-62
2021/12/27 08:19:06;;;;;;;8.38;5.70;;;;;;;6.91;68.87;99917.88;5067422;28;20340;-62
2021/12/27 08:21:34;;;;;;;9.88;5.43;;;;;;;7.02;68.44;99911.78;5072342;28;20191;-62
2021/12/27 08:24:02;;;;;;;9.35;5.68;;;;;;;7.18;67.63;99916.53;5070706;28;20070;-60
2021/12/27 08:26:30;;;;;;;9.90;5.55;;;;;;;7.32;67.14;99909.19;5064424;28;20072;-62
2021/12/27 08:28:58;;;;;;;7.75;5.65;;;;;;;7.48;66.49;99902.41;5071973;28;20072;-61
2021/12/27 08:31:26;;;;;;;9.38;5.32;;;;;;;7.56;66.03;99896.75;5065324;28;20463;-62
2021/12/27 08:33:55;;;;;;;9.35;5.45;;;;;;;7.59;66.06;99890.16;5064224;28;20072;-62
2021/12/27 08:36:23;;;;;;;7.47;5.45;;;;;;;7.67;66.17;99897.84;5055373;28;20084;-63
2021/12/27 08:38:51;;;;;;;7.82;5.22;;;;;;;7.79;65.26;99896.03;5057930;28;20095;-60
2021/12/27 08:41:20;;;;;;;6.65;4.88;;;;;;;7.82;65.07;99877.69;5060349;28;20538;-64
2021/12/27 08:43:49;;;;;;;7.55;5.20;;;;;;;7.72;65.84;99880.09;5068898;28;20048;-63
2021/12/27 08:46:17;;;;;;;8.75;4.70;;;;;;;7.67;66.25;99882.63;5061125;28;20052;-63
2021/12/27 08:48:45;;;;;;;12.45;5.32;;;;;;;7.56;66.07;99874.56;5065478;28;20071;-63
2021/12/27 08:51:14;;;;;;;8.40;5.13;;;;;;;7.48;66.62;99865.00;5063829;28;20487;-63
2021/12/27 08:53:42;;;;;;;9.40;5.07;;;;;;;7.39;67.07;99861.81;5067974;28;20126;-65
2021/12/27 08:56:10;;;;;;;6.47;4.55;;;;;;;7.33;67.57;99862.72;5067739;28;20083;-64
2021/12/27 08:58:37;;;;;;;8.10;4.82;;;;;;;7.26;67.72;99863.81;5061120;28;20045;-63
2021/12/27 09:01:06;;;;;;;7.20;4.85;;;;;;;7.22;67.80;99863.47;5061714;28;20077;-63
2021/12/27 09:03:35;;;;;;;8.50;5.03;;;;;;;7.17;67.69;99872.16;5062544;28;20060;-63
2021/12/27 09:06:06;;;;;;;8.55;5.63;;;;;;;7.14;68.13;99872.59;5066093;28;20071;-63
2021/12/27 09:08:35;;;;;;;7.05;5.20;;;;;;;7.10;67.70;99876.75;5068918;28;20072;-63
2021/12/27 09:11:03;;;;;;;8.85;4.95;;;;;;;7.08;67.94;99878.81;5062590;28;20075;-63
2021/12/27 09:13:33;;;;;;;7.20;4.50;;;;;;;7.19;67.60;99878.09;5060051;28;20087;-64
2021/12/27 09:16:02;;;;;;;6.88;4.45;;;;;;;7.32;67.62;99871.75;5054921;28;20056;-63
2021/12/27 09:18:31;;;;;;;7.63;4.60;;;;;;;7.51;66.89;99881.41;5056482;28;20063;-63
2021/12/27 09:20:59;;;;;;;6.97;4.45;;;;;;;7.63;66.38;99872.59;5059257;28;20087;-63
2021/12/27 09:23:28;;;;;;;7.05;4.03;;;;;;;7.81;65.88;99877.91;5067877;28;20119;-63
2021/12/27 09:25:58;;;;;;;5.93;4.57;;;;;;;7.92;65.04;99871.78;5065266;28;20041;-64
2021/12/27 09:28:25;;;;;;;8.38;4.30;;;;;;;8.05;64.81;99873.44;5069030;28;20080;-63
2021/12/27 09:30:53;;;;;;;8.38;4.70;;;;;;;8.15;64.37;99863.81;5061226;28;20076;-63
2021/12/27 09:33:22;;;;;;;6.90;4.95;;;;;;;8.22;63.61;99863.72;5059743;28;20487;-63
2021/12/27 09:35:50;;;;;;;6.82;4.18;;;;;;;8.18;63.99;99861.72;5056333;28;20434;-64
2021/12/27 09:38:18;;;;;;;6.60;4.43;;;;;;;8.03;64.48;99854.94;5056484;28;20060;-64
2021/12/27 09:40:46;;;;;;;7.35;4.95;;;;;;;7.90;65.11;99859.69;5056269;28;20118;-64
2021/12/27 09:43:15;;;;;;;8.45;5.28;;;;;;;7.77;65.52;99850.00;5058020;28;20088;-64
2021/12/27 09:45:43;;;;;;;7.57;5.40;;;;;;;7.64;66.66;99848.31;5056581;28;20049;-64
2021/12/27 09:48:13;;;;;;;7.25;5.03;;;;;;;7.59;66.82;99850.03;5056770;28;20121;-64
2021/12/27 09:50:44;;;;;;;8.20;4.47;;;;;;;7.50;66.52;99853.03;5054914;28;20081;-64
2021/12/27 09:53:12;;;;;;;5.95;4.00;;;;;;;7.45;67.21;99855.56;5062528;28;20167;-62
2021/12/27 09:55:52;;;;;;;6.07;4.07;;;;;;;7.42;67.51;99857.88;5056357;28;20264;-64
2021/12/27 09:58:22;;;;;;;6.57;4.57;;;;;;;7.37;67.22;99855.06;5055410;28;20160;-64
2021/12/27 10:00:50;;;;;;;9.23;4.70;;;;;;;7.33;67.76;99853.88;5058659;28;20115;-64
2021/12/27 10:03:17;;;;;;;6.97;4.40;;;;;;;7.31;67.73;99845.25;5056173;28;20481;-63
2021/12/27 10:05:45;;;;;;;5.70;4.05;;;;;;;7.26;67.98;99826.41;5065514;28;20144;-63
2021/12/27 10:08:13;;;;;;;8.13;4.45;;;;;;;7.25;68.17;99812.25;5057163;28;20074;-63
2021/12/27 10:10:41;;;;;;;7.38;4.90;;;;;;;7.22;68.90;99822.56;5054623;28;20053;-63
2021/12/27 10:13:09;;;;;;;6.05;4.20;;;;;;;7.18;68.11;99831.03;5056566;28;20480;-64
2021/12/27 10:15:39;;;;;;;6.93;3.95;;;;;;;7.15;68.19;99823.47;5063598;28;20527;-63
2021/12/27 10:18:09;;;;;;;6.72;4.15;;;;;;;7.16;68.81;99826.94;5055992;28;20060;-63
2021/12/27 10:20:38;;;;;;;4.93;3.65;;;;;;;7.15;68.46;99830.66;5055200;28;20124;-63
2021/12/27 10:23:06;;;;;;;6.47;4.03;;;;;;;7.10;68.48;99817.97;5072280;28;20044;-64
2021/12/27 10:25:34;;;;;;;7.50;3.92;;;;;;;7.12;68.40;99828.44;5056111;28;20055;-63
2021/12/27 10:28:03;;;;;;;7.10;5.18;;;;;;;7.12;68.47;99829.25;5057278;28;20142;-64
2021/12/27 10:30:34;;;;;;;5.60;4.13;;;;;;;7.12;68.57;99823.09;5055609;28;20128;-63
2021/12/27 10:33:09;;;;;;;5.25;3.72;;;;;;;7.12;68.48;99829.25;5055999;28;20131;-64
2021/12/27 10:35:39;;;;;;;7.32;4.30;;;;;;;7.11;68.78;99822.28;5066079;28;20390;-64
2021/12/27 10:38:22;;;;;;;5.32;3.67;;;;;;;7.17;67.92;99824.06;5062169;28;20076;-64
2021/12/27 10:40:54;;;;;;;10.57;4.30;;;;;;;7.18;68.68;99816.84;5056365;28;20056;-63
2021/12/27 10:43:35;;;;;;;6.20;4.18;;;;;;;7.19;68.93;99815.81;5067893;28;20052;-63
2021/12/27 10:46:03;;;;;;;8.27;4.05;;;;;;;7.20;68.56;99812.09;5062703;28;20079;-63
2021/12/27 10:48:36;;;;;;;7.53;3.60;;;;;;;7.19;68.61;99807.78;5067206;28;20120;-63
2021/12/27 10:51:04;;;;;;;7.05;3.97;;;;;;;7.19;68.40;99813.13;5064481;28;20082;-63
2021/12/27 10:53:46;;;;;;;7.68;4.13;;;;;;;7.30;68.39;99811.56;5070571;28;20053;-63
2021/12/27 10:56:14;;;;;;;5.97;3.63;;;;;;;7.41;67.41;99806.25;5071561;28;20064;-63
2021/12/27 10:58:48;;;;;;;5.68;3.90;;;;;;;7.58;66.95;99805.63;5061700;28;20470;-63
2021/12/27 11:01:18;;;;;;;7.22;4.00;;;;;;;7.76;66.60;99811.72;5071368;28;20140;-63
2021/12/27 11:03:49;;;;;;;5.15;3.55;;;;;;;7.93;65.54;99811.06;5063328;28;20116;-64
2021/12/27 11:06:20;;;;;;;6.32;4.07;;;;;;;8.08;65.21;99803.41;5062598;28;20099;-63
2021/12/27 11:08:49;;;;;;;6.13;3.38;;;;;;;8.23;64.58;99811.00;5057782;28;20104;-63
2021/12/27 11:11:20;;;;;;;6.32;3.75;;;;;;;8.24;64.94;99818.78;5068564;28;20048;-65
2021/12/27 11:13:50;;;;;;;7.82;3.47;;;;;;;8.18;65.07;99809.00;5071574;28;20045;-61
2021/12/27 11:16:18;;;;;;;5.22;3.70;;;;;;;8.12;65.05;99796.56;5072161;28;20170;-64
2021/12/27 11:18:46;;;;;;;6.13;2.95;;;;;;;7.98;65.66;99777.22;5063207;28;20079;-61
2021/12/27 11:21:18;;;;;;;6.55;3.55;;;;;;;7.97;65.95;99797.00;5066063;28;20048;-63
2021/12/27 11:23:48;;;;;;;5.38;3.30;;;;;;;7.90;66.92;99793.63;5071669;28;20048;-61
2021/12/27 11:26:33;;;;;;;4.60;3.05;;;;;;;7.86;66.74;99786.28;5063879;28;20060;-61
2021/12/27 11:29:12;;;;;;;5.68;3.25;;;;;;;7.81;67.24;99785.09;5064612;28;20441;-61
2021/12/27 11:31:40;;;;;;;5.30;3.53;;;;;;;7.77;67.41;99773.25;5069635;28;20064;-61
2021/12/27 11:34:12;;;;;;;8.75;3.80;;;;;;;7.74;67.82;99770.22;5063501;28;20060;-60
2021/12/27 11:36:44;;;;;;;4.05;3.00;;;;;;;7.70;67.86;99766.38;5065156;28;20065;-62
2021/12/27 11:39:23;;;;;;;4.72;3.53;;;;;;;7.68;68.83;99768.44;5064216;28;20363;-62
2021/12/27 11:41:58;;;;;;;4.65;3.55;;;;;;;7.64;68.11;99760.06;5061407;28;20915;-63
2021/12/27 11:44:38;;;;;;;5.30;3.40;;;;;;;7.62;68.52;99756.00;5062318;28;20084;-64